• Join FlightAware (Why Join?)
  • Login
  • US Flag 
07:30AM EDT


 

Airport Tracker/Info


-or-


 

Live Flight TrackerFlight Track Log ✈ JIA2371 ✈ 04-May-2013 ✈ KCLT - KMOB

Flight Track Log - Related Links

Times and Time Zones

All times are in EDT time to prevent confusion due to time zone crossing. See the JIA2371 flight status page for this flight to view local times or setup timezone preferences in your user account.

Time Position Orientation Groundspeed Altitude Reporting Facility
EDT Latitude Longitude Course Direction KTS MPH feet Rate Location/Type
03:05PM 35.2372 -80.9594 246° West 173 199 1,700  Level Atlanta Center
03:06PM 35.2750 -81.0519 297° West 272 313 3,900 1,740 Climbing Atlanta Center
03:07PM 35.2667 -81.1883 270° West  Level FlightAware Approximate
03:07PM 35.2478 -81.1344 248° West 289 333 6,200  Level Atlanta Center
03:08PM 35.1873 -81.2507 199° South  Level FlightAware Approximate
03:08PM 35.2022 -81.2378 242° Southwest 286 329 9,800  Level Atlanta Center
03:09PM 35.0838 -81.2832 192° South  Level FlightAware Approximate
03:09PM 35.1619 -81.3025 233° Southwest 309 356 11,000  Level Atlanta Center
03:10PM 35.0477 -81.4063 246° West  Level FlightAware Approximate
03:10PM 35.1097 -81.3931 235° Southwest 320 368 13,400  Level Atlanta Center
03:11PM 35.0636 -81.4758 236° Southwest 343 395 14,400 1,740 Climbing Atlanta Center
03:12PM 35.0092 -81.5714 235° Southwest 348 400 16,900 2,040 Climbing Atlanta Center
03:13PM 34.9714 -81.6714 245° Southwest 333 383 18,500 1,680 Climbing Atlanta Center
03:14PM 34.9400 -81.7811 251° West 342 394 20,300 1,680 Climbing Atlanta Center
03:15PM 34.8897 -81.8789 238° Southwest 336 387 21,900 1,560 Climbing Atlanta Center
03:16PM 34.8350 -81.9764 236° Southwest 331 381 23,500 1,380 Climbing Atlanta Center
03:17PM 34.7844 -82.0686 236° Southwest 331 381 24,700 900 Climbing Atlanta Center
03:18PM 34.7294 -82.1608 234° Southwest 336 387 25,300 600 Climbing Atlanta Center
03:19PM 34.6725 -82.2633 236° Southwest 346 398 25,900 660 Climbing Atlanta Center
03:20PM 34.6156 -82.3653 236° Southwest 360 414 26,700 900 Climbing Atlanta Center
03:21PM 34.5564 -82.4700 236° Southwest 376 433 27,800 1,080 Climbing Atlanta Center
03:22PM 34.4992 -82.5694 235° Southwest 381 438 28,900 960 Climbing Atlanta Center
03:23PM 34.4378 -82.6661 232° Southwest 369 425 29,800 900 Climbing Atlanta Center
03:24PM 34.3825 -82.7678 237° Southwest 369 425 30,800 900 Climbing Atlanta Center
03:25PM 34.3250 -82.8667 235° Southwest 364 419 31,700 780 Climbing Atlanta Center
03:26PM 34.2758 -82.9553 236° Southwest 364 419 32,400 660 Climbing Atlanta Center
03:27PM 34.2119 -83.0592 233° Southwest 357 411 33,100 660 Climbing Atlanta Center
03:28PM 34.1647 -83.1450 236° Southwest 357 411 33,800 420 Climbing Atlanta Center
03:29PM 34.1089 -83.2383 234° Southwest 357 411 34,000 60 Climbing Atlanta Center
03:30PM 34.0511 -83.3392 235° Southwest 357 411 34,000  Level Atlanta Center
03:31PM 33.9911 -83.4375 234° Southwest 362 417 34,000  Level Atlanta Center
03:32PM 33.9269 -83.5456 234° Southwest 362 417 34,000  Level Atlanta Center
03:33PM 33.8689 -83.6461 235° Southwest 362 417 34,000  Level Atlanta Center
03:34PM 33.8086 -83.7464 234° Southwest 367 422 34,000  Level Atlanta Center
03:35PM 33.7481 -83.8464 234° Southwest 372 428 34,000  Level Atlanta Center
03:36PM 33.6897 -83.9464 235° Southwest 372 428 34,000  Level Atlanta Center
03:37PM 33.6294 -84.0464 234° Southwest 377 434 34,000  Level Atlanta Center
03:38PM 33.5667 -84.1461 233° Southwest 377 434 34,000  Level Atlanta Center
03:39PM 33.5144 -84.2356 235° Southwest 377 434 34,000  Level Atlanta Center
03:40PM 33.4558 -84.3325 234° Southwest 372 428 34,000  Level Atlanta Center
03:41PM 33.3969 -84.4294 234° Southwest 372 428 34,000  Level Atlanta Center
03:42PM 33.3361 -84.5311 234° Southwest 372 428 34,000  Level Atlanta Center
03:43PM 33.2753 -84.6303 234° Southwest 372 428 34,000  Level Atlanta Center
03:44PM 33.2078 -84.7414 234° Southwest 379 436 34,000  Level Atlanta Center
03:45PM 33.1467 -84.8428 234° Southwest 379 436 34,000  Level Atlanta Center
03:46PM 33.0833 -84.9461 234° Southwest 389 448 34,000  Level Atlanta Center
03:47PM 33.0200 -85.0522 235° Southwest 389 448 34,000  Level Atlanta Center
03:48PM 32.9692 -85.1356 234° Southwest 389 448 34,000  Level Atlanta Center
03:49PM 32.8886 -85.2461 229° Southwest 389 448 34,000  Level Atlanta Center
03:50PM 32.8292 -85.3564 237° Southwest 394 453 34,000  Level Atlanta Center
03:51PM 32.7653 -85.4617 234° Southwest 394 453 34,000  Level Atlanta Center
03:52PM 32.6994 -85.5619 232° Southwest 394 453 34,000  Level Atlanta Center
03:53PM 32.6333 -85.6692 234° Southwest 394 453 34,000  Level Atlanta Center
03:54PM 32.5714 -85.7717 234° Southwest 399 459 34,000  Level Atlanta Center
03:55PM 32.5094 -85.8689 233° Southwest 407 468 34,000  Level Atlanta Center
03:56PM 32.4433 -85.9708 232° Southwest 407 468 34,000  Level Atlanta Center
03:57PM 32.3769 -86.0728 232° Southwest 407 468 34,000  Level Atlanta Center
03:58PM 32.3106 -86.1769 233° Southwest 402 463 34,000  Level Atlanta Center
03:59PM 32.2439 -86.2783 232° Southwest 397 457 34,000  Level Atlanta Center
04:00PM 32.1817 -86.3775 233° Southwest 404 465 34,000  Level Atlanta Center
04:01PM 32.1086 -86.4858 231° Southwest 394 453 34,000 -780 Level Atlanta Center
04:02PM 32.0397 -86.5869 231° Southwest 389 448 32,500 -1,560 Descending Atlanta Center
04:03PM 31.9644 -86.6875 229° Southwest 399 459 30,900 -1,620 Descending Atlanta Center
04:04PM 31.8917 -86.7783 227° Southwest 416 479 29,300 -1,680 Descending Atlanta Center
04:05PM 31.8206 -86.8789 230° Southwest 416 479 27,600 -1,680 Descending Atlanta Center
04:06PM 31.7514 -86.9744 230° Southwest 400 460 26,000 -1,680 Descending Atlanta Center
04:08PM 31.6372 -87.1303 229° Southwest 375 432 23,200 -1,680 Descending Houston Center
04:09PM 31.5683 -87.2231 229° Southwest 376 433 21,600 -1,620 Descending Houston Center
04:10PM 31.5006 -87.3150 229° Southwest 373 429 20,000 -1,620 Descending Houston Center
04:11PM 31.4331 -87.4081 230° Southwest 374 430 18,400 -1,560 Descending Houston Center
04:12PM 31.3647 -87.5000 229° Southwest 374 430 16,800 -1,740 Descending Houston Center
04:13PM 31.2908 -87.6025 230° Southwest 345 397 14,900 -1,740 Descending Houston Center
04:14PM 31.2314 -87.6833 229° Southwest 330 380 13,300 -1,620 Descending Houston Center
04:15PM 31.1722 -87.7639 229° Southwest 326 375 11,700 -1,140 Descending Houston Center
04:16PM 31.1117 -87.8453 229° Southwest 330 380 11,000 -540 Descending Houston Center
04:17PM 31.0431 -87.9100 219° Southwest 315 362 10,600 -960 Descending Houston Center
04:18PM 30.9758 -87.9533 209° Southwest 280 322 9,100 -1,560 Descending Houston Center
04:19PM 30.9100 -87.9928 207° Southwest 267 307 7,500 -1,620 Descending Houston Center
04:20PM 30.8414 -88.0358 208° Southwest 272 313 5,900 -1,800 Descending Houston Center
04:21PM 30.7617 -88.0861 208° Southwest 272 313 3,900 -1,500 Descending Houston Center
04:22PM 30.7050 -88.1211 208° Southwest 252 290 2,900 -780 Descending Houston Center
04:23PM 30.6567 -88.1481 206° Southwest 219 252 2,400 -540 Descending Houston Center
04:24PM 30.6250 -88.1808 222° Southwest 187 215 1,800 -660 Descending Houston Center
04:25PM 30.6500 -88.2094 315° West 152 175 1,100 -720 Descending Houston Center
04:26PM 30.6781 -88.2339 323° Northwest 135 155 400 -720 Descending Houston Center